Wylie's Hourly Summary for Sunday, April 16, 2017
Hour Temp
(f)
RH
(%)
Solar Rad.
(MJ/m2)
Rainfall
(in)
Wind
(mph)
4/16/2017 12:00 AM 70 70 0 0 5.57
4/16/2017 1:00 AM 69 72 0 0 4.9
4/16/2017 2:00 AM 68 72 0 0 5.32
4/16/2017 3:00 AM 67 78 0 0 5.38
4/16/2017 4:00 AM 66 82 0 0 5.37
4/16/2017 5:00 AM 65 85 0 0 5.46
4/16/2017 6:00 AM 65 86 0 0 5.73
4/16/2017 7:00 AM 65 95 0 0 6.48
4/16/2017 8:00 AM 66 95 0.28 0 6.82
4/16/2017 9:00 AM 67 91 0.37 0 6.14
4/16/2017 10:00 AM 69 80 0.9 0 6.54
4/16/2017 11:00 AM 70 79 0.39 0 5.93
4/16/2017 12:00 PM 72 71 1.26 0 5.86
4/16/2017 1:00 PM 74 68 0.95 0 6.25
4/16/2017 2:00 PM 76 61 1.6 0 7.2
4/16/2017 3:00 PM 76 62 0.8 0 6.97
4/16/2017 4:00 PM 76 66 0.74 0 8.25
4/16/2017 5:00 PM 78 60 1.78 0 8.83
4/16/2017 6:00 PM 79 57 1.16 0 5.81
4/16/2017 7:00 PM 77 61 0.4 0 5.1
4/16/2017 8:00 PM 76 63 0.06 0 2.61
4/16/2017 9:00 PM 74 67 0 0 1.06
4/16/2017 10:00 PM 72 74 0 0 1.36
4/16/2017 11:00 PM 72 76 0 0 2.4
Data Summary 71 73 10.69 0.00 5.47